Time;durP1;ratioP1;P1;durP2;ratioP2;P2;SDS_P1;SDS_P2;PMS_P1;PMS_P2;Temp;Humidity;BMP_temperature;BMP_pressure;BME280_temperature;BME280_humidity;BME280_pressure;Samples;Min_cycle;Max_cycle;Signal;HPM_P1;HPM_P2
2021/04/24 00:00:38;;;;;;;2.10;1.40;;;;;;;20.88;51.08;101367.17;1744414;80;21701;-63
2021/04/24 00:03:08;;;;;;;2.80;1.80;;;;;;;20.87;51.06;101364.73;1738733;81;21205;-64
2021/04/24 00:05:40;;;;;;;1.60;1.40;;;;;;;20.85;51.08;101365.02;1741737;80;21194;-64
2021/04/24 00:08:08;;;;;;;2.25;1.52;;;;;;;20.84;51.07;101365.31;1771939;79;21173;-63
2021/04/24 00:10:39;;;;;;;1.92;1.50;;;;;;;20.83;51.06;101361.76;1774180;79;21143;-64
2021/04/24 00:13:07;;;;;;;1.82;1.45;;;;;;;20.81;51.06;101361.78;1773581;78;26821;-64
2021/04/24 00:15:34;;;;;;;2.12;1.60;;;;;;;20.81;51.08;101365.94;1766811;79;21996;-64
2021/04/24 00:18:00;;;;;;;2.08;1.37;;;;;;;20.80;51.08;101360.97;1771317;79;21241;-64
2021/04/24 00:20:27;;;;;;;3.12;1.75;;;;;;;20.81;51.07;101363.17;1771567;79;21245;-63
2021/04/24 00:22:53;;;;;;;2.05;1.52;;;;;;;20.80;51.09;101358.76;1766761;79;21202;-64
2021/04/24 00:25:20;;;;;;;2.00;1.50;;;;;;;20.80;51.08;101357.38;1772620;79;21225;-64
2021/04/24 00:27:47;;;;;;;2.12;1.50;;;;;;;20.79;51.09;101361.29;1770985;79;23582;-63
2021/04/24 00:30:15;;;;;;;2.80;1.55;;;;;;;20.79;51.08;101357.94;1771930;79;21209;-63
2021/04/24 00:32:42;;;;;;;1.52;1.22;;;;;;;20.78;51.07;101356.32;1771292;79;21142;-63
2021/04/24 00:35:10;;;;;;;1.57;1.32;;;;;;;20.77;51.06;101360.20;1769643;79;21128;-63
2021/04/24 00:37:36;;;;;;;1.82;1.45;;;;;;;20.77;51.08;101360.77;1770140;79;21153;-63
2021/04/24 00:40:05;;;;;;;1.40;1.20;;;;;;;20.76;51.08;101356.34;1770834;79;21579;-64
2021/04/24 00:42:31;;;;;;;1.55;1.32;;;;;;;20.74;51.06;101355.84;1772231;79;21772;-64
2021/04/24 00:44:58;;;;;;;2.22;1.75;;;;;;;20.74;51.08;101360.82;1768467;79;21033;-64
2021/04/24 00:47:25;;;;;;;2.10;1.45;;;;;;;20.72;51.06;101348.41;1767959;79;21192;-64
2021/04/24 00:49:52;;;;;;;2.67;1.65;;;;;;;20.70;51.05;101354.27;1769961;79;21174;-64
2021/04/24 00:52:18;;;;;;;1.75;1.25;;;;;;;20.70;51.04;101357.59;1767055;79;21293;-64
2021/04/24 00:54:45;;;;;;;1.87;1.40;;;;;;;20.69;51.07;101359.53;1768615;79;21265;-64
2021/04/24 00:57:11;;;;;;;2.17;1.30;;;;;;;20.67;51.05;101354.84;1768308;79;21526;-64
2021/04/24 00:59:38;;;;;;;1.65;1.27;;;;;;;20.67;51.05;101356.79;1768438;79;20973;-64
2021/04/24 01:02:05;;;;;;;1.90;1.30;;;;;;;20.66;51.08;101359.33;1768075;79;21125;-64
2021/04/24 01:04:32;;;;;;;2.02;1.40;;;;;;;20.65;51.05;101358.50;1770134;79;21232;-64
2021/04/24 01:06:59;;;;;;;1.95;1.40;;;;;;;20.67;51.08;101362.31;1770401;79;21229;-63
2021/04/24 01:09:26;;;;;;;1.50;1.30;;;;;;;20.65;51.06;101359.05;1769130;79;21177;-63
2021/04/24 01:11:53;;;;;;;1.47;1.17;;;;;;;20.65;51.10;101364.03;1769483;79;21166;-64
2021/04/24 01:14:19;;;;;;;2.40;1.65;;;;;;;20.65;51.08;101359.88;1768182;79;21194;-64
2021/04/24 01:16:46;;;;;;;1.65;1.32;;;;;;;20.67;51.06;101355.41;1769875;79;21188;-64
2021/04/24 01:19:14;;;;;;;2.80;1.57;;;;;;;20.65;51.04;101361.27;1768959;79;21197;-64
2021/04/24 01:21:41;;;;;;;2.35;1.50;;;;;;;20.65;51.05;101370.94;1768560;79;21200;-64
2021/04/24 01:24:29;;;;;;;2.37;1.52;;;;;;;20.63;51.03;101373.17;1768009;79;21096;-64
2021/04/24 01:26:56;;;;;;;2.17;1.60;;;;;;;20.62;51.04;101374.32;1740145;78;21159;-64
2021/04/24 01:29:23;;;;;;;2.45;1.60;;;;;;;20.61;51.05;101367.14;1771716;79;21250;-63
2021/04/24 01:31:50;;;;;;;2.27;1.50;;;;;;;20.59;51.01;101367.17;1775134;79;21202;-64
2021/04/24 01:34:16;;;;;;;1.98;1.57;;;;;;;20.58;51.03;101371.88;1771655;79;21161;-63
2021/04/24 01:36:43;;;;;;;1.85;1.25;;;;;;;20.57;51.03;101379.94;1776499;79;21206;-63
2021/04/24 01:39:09;;;;;;;2.47;1.67;;;;;;;20.56;51.02;101378.28;1735040;81;22051;-63
2021/04/24 01:41:36;;;;;;;2.15;1.50;;;;;;;20.55;51.04;101373.88;1737097;81;21217;-64
2021/04/24 01:44:03;;;;;;;2.08;1.50;;;;;;;20.54;51.04;101373.61;1733507;81;21274;-65
2021/04/24 01:46:30;;;;;;;2.27;1.57;;;;;;;20.53;51.03;101376.14;1735678;81;21220;-63
2021/04/24 01:48:56;;;;;;;1.92;1.52;;;;;;;20.53;51.04;101366.46;1739226;80;21149;-64
2021/04/24 01:51:23;;;;;;;2.37;1.60;;;;;;;20.53;51.05;101373.38;1734574;80;21637;-63
2021/04/24 01:53:50;;;;;;;2.65;1.90;;;;;;;20.52;51.05;101364.81;1775411;78;21422;-63
2021/04/24 01:56:16;;;;;;;1.92;1.65;;;;;;;20.53;51.06;101362.87;1744954;80;21244;-63
2021/04/24 01:58:43;;;;;;;2.47;1.90;;;;;;;20.54;51.06;101368.08;1734858;81;21613;-64
2021/04/24 02:01:11;;;;;;;2.65;1.70;;;;;;;20.54;51.05;101361.76;1720543;81;21741;-64
2021/04/24 02:03:37;;;;;;;3.47;1.77;;;;;;;20.53;51.02;101358.73;1719130;81;21286;-63
2021/04/24 02:06:05;;;;;;;2.37;1.75;;;;;;;20.52;51.01;101362.05;1775271;78;21201;-63
2021/04/24 02:08:41;;;;;;;2.58;1.52;;;;;;;20.52;51.01;101366.20;1779631;79;21695;-63
2021/04/24 02:11:08;;;;;;;3.58;1.80;;;;;;;20.50;51.00;101367.88;1772555;79;21564;-64
2021/04/24 02:13:39;;;;;;;2.37;1.57;;;;;;;20.48;50.99;101363.23;1771254;79;21125;-64
2021/04/24 02:16:11;;;;;;;3.30;1.82;;;;;;;20.48;51.00;101362.40;1775813;78;21172;-64
2021/04/24 02:18:37;;;;;;;2.65;1.70;;;;;;;20.47;51.01;101360.75;1779181;78;21190;-64
2021/04/24 02:21:04;;;;;;;3.08;1.70;;;;;;;20.45;51.01;101361.05;1778235;78;21167;-64
2021/04/24 02:23:41;;;;;;;2.22;1.60;;;;;;;20.44;51.03;101364.95;1741856;80;21624;-64
2021/04/24 02:26:07;;;;;;;2.30;1.82;;;;;;;20.43;51.04;101369.39;1734794;80;21128;-64
2021/04/24 02:28:34;;;;;;;2.08;1.47;;;;;;;20.41;51.04;101369.69;1732892;80;21193;-64
2021/04/24 02:31:01;;;;;;;2.45;1.50;;;;;;;20.41;51.06;101373.83;1734023;80;21195;-64
2021/04/24 02:33:27;;;;;;;2.10;1.60;;;;;;;20.42;51.09;101369.13;1737628;80;21212;-64
2021/04/24 02:35:57;;;;;;;2.35;1.60;;;;;;;20.41;51.12;101371.06;1737536;81;21141;-64
2021/04/24 02:38:30;;;;;;;1.90;1.30;;;;;;;20.41;51.14;101369.69;1735096;81;21186;-65
2021/04/24 02:40:59;;;;;;;4.45;1.62;;;;;;;20.42;51.18;101367.75;1714999;82;21165;-64
2021/04/24 02:43:27;;;;;;;2.45;1.55;;;;;;;20.42;51.19;101369.13;1713385;81;21626;-65
2021/04/24 02:45:54;;;;;;;2.30;1.90;;;;;;;20.41;51.21;101372.45;1712982;82;21194;-65
2021/04/24 02:48:20;;;;;;;1.92;1.45;;;;;;;20.41;51.21;101371.66;1744012;80;21224;-65
2021/04/24 02:50:48;;;;;;;4.28;1.80;;;;;;;20.41;51.21;101375.80;1774534;79;21581;-65
2021/04/24 02:53:14;;;;;;;2.35;1.70;;;;;;;20.41;51.20;101371.66;1774054;79;21536;-64
2021/04/24 02:55:41;;;;;;;2.77;1.65;;;;;;;20.40;51.22;101376.36;1747313;79;21264;-65
2021/04/24 02:58:07;;;;;;;1.90;1.47;;;;;;;20.39;51.23;101376.65;1753427;80;21153;-64
2021/04/24 03:00:34;;;;;;;2.30;1.65;;;;;;;20.37;51.24;101376.12;1738485;80;21568;-64
2021/04/24 03:03:10;;;;;;;3.05;2.20;;;;;;;20.37;51.25;101381.64;1737725;80;21210;-65
2021/04/24 03:05:37;;;;;;;3.10;1.70;;;;;;;20.35;51.26;101375.61;1747954;80;21129;-64
2021/04/24 03:08:04;;;;;;;3.10;2.10;;;;;;;20.33;51.26;101377.84;1737585;80;21592;-65
2021/04/24 03:10:31;;;;;;;3.60;2.08;;;;;;;20.33;51.27;101381.98;1739335;80;21524;-64
2021/04/24 03:12:57;;;;;;;2.67;1.70;;;;;;;20.32;51.29;101377.61;1747496;80;21173;-64
2021/04/24 03:15:24;;;;;;;2.55;1.67;;;;;;;20.31;51.29;101387.02;1736257;81;21580;-64
2021/04/24 03:17:50;;;;;;;2.50;1.82;;;;;;;20.31;51.34;101387.02;1713547;82;21248;-64
2021/04/24 03:20:18;;;;;;;2.40;1.70;;;;;;;20.30;51.38;101390.33;1738840;80;21212;-65
2021/04/24 03:22:44;;;;;;;2.62;1.80;;;;;;;20.30;51.38;101390.89;1741890;80;21189;-64
2021/04/24 03:25:12;;;;;;;2.40;1.77;;;;;;;20.31;51.44;101393.92;1734057;80;21173;-65
2021/04/24 03:27:38;;;;;;;2.72;2.02;;;;;;;20.29;51.44;101390.06;1750826;80;21178;-65
2021/04/24 03:30:27;;;;;;;3.02;2.17;;;;;;;20.31;51.48;101389.78;1750210;80;21640;-65
2021/04/24 03:32:53;;;;;;;2.80;1.95;;;;;;;20.31;51.48;101391.16;1738776;80;21652;-65
2021/04/24 03:35:19;;;;;;;3.42;2.20;;;;;;;20.30;51.48;101395.86;1745092;81;21034;-64
2021/04/24 03:37:46;;;;;;;2.05;1.62;;;;;;;20.29;51.49;101392.83;1749479;81;21536;-64
2021/04/24 03:40:14;;;;;;;3.75;2.30;;;;;;;20.28;51.47;101401.41;1749600;81;21109;-65
2021/04/24 03:42:40;;;;;;;3.22;2.25;;;;;;;20.28;51.49;101402.79;1747108;80;21160;-64
2021/04/24 03:45:17;;;;;;;2.90;2.02;;;;;;;20.26;51.51;101408.61;1752134;81;22138;-65
2021/04/24 03:47:36;;;;;;;3.10;1.95;;;;;;;20.25;51.50;101404.20;1743701;81;21051;-64
2021/04/24 03:50:04;;;;;;;3.30;2.30;;;;;;;20.25;51.50;101408.90;1738145;81;21169;-64
2021/04/24 03:52:30;;;;;;;2.55;1.95;;;;;;;20.25;51.51;101406.95;1750538;81;21255;-64
2021/04/24 03:54:57;;;;;;;2.90;1.90;;;;;;;20.23;51.52;101410.59;1743593;81;21187;-64
2021/04/24 03:57:23;;;;;;;2.85;2.05;;;;;;;20.22;51.52;101404.80;1752040;81;21213;-65
2021/04/24 03:59:50;;;;;;;2.70;1.80;;;;;;;20.22;51.54;101406.75;1750372;81;21622;-64
2021/04/24 04:02:16;;;;;;;2.80;1.80;;;;;;;20.22;51.55;101410.89;1747545;81;21173;-65
2021/04/24 04:04:43;;;;;;;2.87;1.82;;;;;;;20.22;51.57;101420.00;1744704;80;21987;-65
2021/04/24 04:07:09;;;;;;;2.52;1.90;;;;;;;20.23;51.63;101429.94;1743259;80;21220;-64
2021/04/24 04:09:35;;;;;;;2.42;1.65;;;;;;;20.23;51.63;101428.56;1750798;81;21274;-64
2021/04/24 04:12:03;;;;;;;2.58;1.82;;;;;;;20.26;51.63;101431.27;1751266;80;21189;-65
2021/04/24 04:14:29;;;;;;;3.37;2.12;;;;;;;20.27;51.64;101432.92;1744537;81;21184;-64
2021/04/24 04:16:55;;;;;;;3.45;2.00;;;;;;;20.28;51.65;101435.39;1743652;81;21193;-64
2021/04/24 04:19:22;;;;;;;2.67;1.87;;;;;;;20.30;51.63;101435.11;1752298;81;21129;-64
2021/04/24 04:21:48;;;;;;;3.42;2.20;;;;;;;20.33;51.61;101441.41;1746915;81;21090;-64
2021/04/24 04:24:15;;;;;;;4.03;2.40;;;;;;;20.35;51.60;101436.41;1742710;81;21919;-65
2021/04/24 04:26:41;;;;;;;2.55;1.90;;;;;;;20.36;51.61;101437.50;1742349;81;21141;-64
2021/04/24 04:29:08;;;;;;;4.03;2.27;;;;;;;20.39;51.60;101441.59;1737856;81;21196;-64
2021/04/24 04:31:34;;;;;;;3.08;2.30;;;;;;;20.39;51.57;101436.89;1755192;79;21124;-64
2021/04/24 04:34:01;;;;;;;3.27;2.15;;;;;;;20.43;51.57;101442.63;1769692;79;21205;-65
2021/04/24 04:36:28;;;;;;;2.62;1.82;;;;;;;20.45;51.57;101438.44;1772505;79;21317;-65
2021/04/24 04:38:55;;;;;;;2.75;2.15;;;;;;;20.47;51.57;101443.12;1771013;79;21113;-64
2021/04/24 04:41:21;;;;;;;3.25;2.10;;;;;;;20.49;51.55;101440.06;1771442;79;21579;-64
2021/04/24 04:43:48;;;;;;;2.72;1.75;;;;;;;20.51;51.55;101439.19;1771335;79;21233;-63
2021/04/24 04:46:14;;;;;;;2.40;1.90;;;;;;;20.54;51.53;101441.92;1773293;79;21204;-64
2021/04/24 04:48:41;;;;;;;3.77;2.45;;;;;;;20.55;51.54;101442.16;1771266;79;21177;-64
2021/04/24 04:51:07;;;;;;;3.85;2.15;;;;;;;20.57;51.54;101439.93;1774329;79;21584;-63
2021/04/24 04:53:33;;;;;;;3.58;2.40;;;;;;;20.59;51.53;101454.25;1772274;79;21098;-64
2021/04/24 04:56:00;;;;;;;3.58;2.42;;;;;;;20.59;51.55;101455.08;1776132;79;21224;-64
2021/04/24 04:58:26;;;;;;;3.50;2.22;;;;;;;20.61;51.56;101453.41;1742007;79;23528;-64
2021/04/24 05:00:53;;;;;;;3.37;2.35;;;;;;;20.62;51.54;101453.12;1770598;79;21208;-64
2021/04/24 05:03:19;;;;;;;2.90;2.08;;;;;;;20.63;51.53;101450.59;1770019;79;21164;-63
2021/04/24 05:05:45;;;;;;;5.25;2.30;;;;;;;20.67;51.53;101459.09;1773772;79;21165;-63
2021/04/24 05:08:11;;;;;;;3.55;2.00;;;;;;;20.67;51.52;101456.33;1771642;79;21143;-63
2021/04/24 05:10:38;;;;;;;3.02;1.98;;;;;;;20.68;51.52;101457.42;1769468;79;21441;-64
2021/04/24 05:13:04;;;;;;;3.85;2.27;;;;;;;20.69;51.50;101457.69;1771644;79;21576;-63
2021/04/24 05:15:31;;;;;;;3.75;2.15;;;;;;;20.71;51.50;101458.78;1770123;79;21077;-63
2021/04/24 05:17:57;;;;;;;3.25;2.20;;;;;;;20.71;51.50;101456.02;1772230;79;22046;-63
2021/04/24 05:20:24;;;;;;;3.60;2.50;;;;;;;20.73;51.52;101459.28;1771384;79;21209;-63
2021/04/24 05:22:50;;;;;;;3.40;2.10;;;;;;;20.75;51.52;101466.73;1771339;79;21148;-63
2021/04/24 05:25:17;;;;;;;3.62;2.17;;;;;;;20.75;51.48;101468.11;1769482;79;21700;-64
2021/04/24 05:27:46;;;;;;;4.05;2.60;;;;;;;20.76;51.50;101464.20;1771212;79;21083;-64
2021/04/24 05:30:14;;;;;;;2.45;1.95;;;;;;;20.77;51.48;101469.44;1774808;79;21190;-63
2021/04/24 05:32:42;;;;;;;3.60;2.20;;;;;;;20.77;51.47;101469.44;1771679;79;21628;-63
2021/04/24 05:35:10;;;;;;;2.98;2.33;;;;;;;20.77;51.48;101455.61;1773517;79;21576;-64
2021/04/24 05:37:36;;;;;;;4.28;2.20;;;;;;;20.79;51.49;101460.25;1767815;79;21197;-63
2021/04/24 05:40:05;;;;;;;2.98;1.87;;;;;;;20.79;51.48;101460.84;1771850;79;21172;-63
2021/04/24 05:42:32;;;;;;;3.15;2.05;;;;;;;20.79;51.50;101464.99;1771169;79;21243;-63
2021/04/24 05:44:59;;;;;;;2.83;2.10;;;;;;;20.80;51.48;101461.91;1770127;79;21356;-64
2021/04/24 05:47:27;;;;;;;3.12;2.10;;;;;;;20.81;51.49;101461.34;1769322;79;23512;-64
2021/04/24 05:49:53;;;;;;;2.60;1.90;;;;;;;20.80;51.48;101469.38;1772390;79;21122;-64
2021/04/24 05:52:20;;;;;;;3.85;2.00;;;;;;;20.80;51.48;101468.00;1769279;79;21810;-64
2021/04/24 05:54:46;;;;;;;2.67;1.82;;;;;;;20.79;51.48;101475.47;1769683;79;21251;-63
2021/04/24 05:57:13;;;;;;;2.42;1.80;;;;;;;20.80;51.49;101473.53;1770388;79;21136;-64
2021/04/24 05:59:39;;;;;;;2.90;1.98;;;;;;;20.79;51.48;101474.08;1769786;79;21188;-63
2021/04/24 06:02:05;;;;;;;3.33;2.30;;;;;;;20.80;51.48;101469.38;1772975;79;21192;-63
2021/04/24 06:04:32;;;;;;;3.17;1.80;;;;;;;20.80;51.49;101466.05;1769535;79;21148;-64
2021/04/24 06:07:00;;;;;;;3.92;2.00;;;;;;;20.81;51.48;101470.47;1772392;79;21452;-64
2021/04/24 06:09:27;;;;;;;2.72;2.02;;;;;;;20.81;51.48;101466.88;1770807;79;21108;-64
2021/04/24 06:11:53;;;;;;;4.87;2.40;;;;;;;20.82;51.47;101475.44;1770662;79;22203;-64
2021/04/24 06:14:19;;;;;;;3.60;2.40;;;;;;;20.82;51.47;101474.06;1772135;79;21904;-63
2021/04/24 06:16:46;;;;;;;3.33;2.22;;;;;;;20.81;51.46;101477.38;1769055;79;21128;-64
2021/04/24 06:19:12;;;;;;;3.85;2.50;;;;;;;20.82;51.44;101477.65;1771588;79;21133;-63
2021/04/24 06:21:39;;;;;;;3.00;2.15;;;;;;;20.82;51.46;101477.65;1769711;79;21169;-63
2021/04/24 06:24:07;;;;;;;4.08;2.52;;;;;;;20.82;51.47;101480.41;1770847;79;21337;-63
2021/04/24 06:26:33;;;;;;;4.15;2.30;;;;;;;20.82;51.46;101478.20;1774443;79;21122;-63
2021/04/24 06:29:00;;;;;;;3.95;2.35;;;;;;;20.81;51.46;101482.09;1769395;79;21171;-62
2021/04/24 06:31:27;;;;;;;3.52;2.33;;;;;;;20.80;51.46;101477.67;1771256;79;21587;-63
2021/04/24 06:33:53;;;;;;;4.85;2.52;;;;;;;20.80;51.45;101479.06;1750952;80;21165;-63
2021/04/24 06:36:19;;;;;;;4.47;2.92;;;;;;;20.78;51.46;101480.77;1717471;82;21586;-62
2021/04/24 06:38:46;;;;;;;5.58;2.52;;;;;;;20.78;51.46;101485.47;1739629;80;21157;-62
2021/04/24 06:41:13;;;;;;;4.70;2.55;;;;;;;20.78;51.48;101489.06;1744791;80;21147;-62
2021/04/24 06:43:39;;;;;;;6.95;3.20;;;;;;;20.78;51.46;101486.30;1746382;80;21475;-62
2021/04/24 06:46:05;;;;;;;4.22;2.40;;;;;;;20.77;51.51;101481.88;1748238;80;21030;-63
2021/04/24 06:48:32;;;;;;;3.72;2.33;;;;;;;20.77;51.51;101490.17;1749602;80;21567;-62
2021/04/24 06:51:00;;;;;;;4.60;2.50;;;;;;;20.77;51.52;101487.97;1746093;80;21164;-63
2021/04/24 06:53:27;;;;;;;5.20;3.08;;;;;;;20.76;51.54;101485.76;1747860;80;21145;-62
2021/04/24 06:55:54;;;;;;;4.08;2.95;;;;;;;20.76;51.55;101485.76;1751607;80;21137;-62
2021/04/24 06:58:25;;;;;;;5.12;2.98;;;;;;;20.76;51.57;101480.23;1739151;80;21172;-64
2021/04/24 07:00:50;;;;;;;4.12;2.85;;;;;;;20.77;51.58;101489.35;1750446;80;22118;-63
2021/04/24 07:03:17;;;;;;;5.85;2.67;;;;;;;20.77;51.58;101486.59;1745751;80;21918;-63
2021/04/24 07:05:43;;;;;;;4.70;3.10;;;;;;;20.76;51.59;101481.61;1750002;80;21191;-61
2021/04/24 07:08:09;;;;;;;4.92;2.87;;;;;;;20.77;51.60;101485.20;1750779;80;21608;-63
2021/04/24 07:10:36;;;;;;;4.85;3.22;;;;;;;20.77;51.60;101493.50;1750260;80;21129;-63
2021/04/24 07:13:02;;;;;;;4.22;2.77;;;;;;;20.77;51.63;101494.88;1747815;80;21266;-63
2021/04/24 07:15:28;;;;;;;4.97;2.85;;;;;;;20.76;51.62;101491.29;1745363;80;21172;-62
2021/04/24 07:17:55;;;;;;;3.72;2.50;;;;;;;20.76;51.62;101485.76;1754671;80;21231;-61
2021/04/24 07:20:21;;;;;;;4.65;2.85;;;;;;;20.78;51.67;101494.59;1751025;81;21227;-61
2021/04/24 07:22:48;;;;;;;7.15;3.10;;;;;;;20.78;51.65;101494.59;1746842;80;21153;-61
2021/04/24 07:25:15;;;;;;;7.15;3.72;;;;;;;20.78;51.62;101495.97;1752562;81;21267;-61
2021/04/24 07:27:42;;;;;;;10.82;5.25;;;;;;;20.76;51.62;101493.23;1747641;80;21240;-61
2021/04/24 07:30:10;;;;;;;5.12;3.45;;;;;;;20.76;51.60;101490.47;1748537;80;21213;-61
2021/04/24 07:32:37;;;;;;;4.55;3.25;;;;;;;20.74;51.54;101491.34;1741555;79;21195;-61
2021/04/24 07:35:06;;;;;;;6.83;2.95;;;;;;;20.72;51.48;101494.41;1771044;79;21213;-63
2021/04/24 07:37:33;;;;;;;4.47;2.92;;;;;;;20.70;51.42;101489.75;1766464;79;21211;-64
2021/04/24 07:39:59;;;;;;;5.42;3.95;;;;;;;20.69;51.36;101490.04;1771137;79;21228;-64
2021/04/24 07:42:25;;;;;;;5.12;3.45;;;;;;;20.68;51.29;101480.92;1771503;79;22494;-63
2021/04/24 07:44:52;;;;;;;6.35;2.77;;;;;;;20.67;51.25;101478.45;1764622;79;21550;-63
2021/04/24 07:47:18;;;;;;;5.92;3.60;;;;;;;20.67;51.20;101468.77;1773869;79;21588;-61
2021/04/24 07:49:45;;;;;;;4.03;2.83;;;;;;;20.65;51.16;101470.48;1770727;79;22070;-63
2021/04/24 07:52:12;;;;;;;6.97;3.67;;;;;;;20.70;51.14;101470.95;1772872;79;21187;-63
2021/04/24 07:54:43;;;;;;;4.55;3.08;;;;;;;20.71;51.09;101471.22;1737760;80;21194;-63
2021/04/24 07:57:06;;;;;;;4.85;3.52;;;;;;;20.73;51.05;101467.02;1736874;80;21156;-62
2021/04/24 07:59:33;;;;;;;7.15;4.40;;;;;;;20.76;50.92;101466.96;1717060;82;21281;-62
2021/04/24 08:01:59;;;;;;;4.65;3.37;;;;;;;20.78;50.63;101459.20;1735955;80;21276;-61
2021/04/24 08:04:26;;;;;;;5.15;3.00;;;;;;;20.80;50.39;101466.05;1740511;80;21205;-61
2021/04/24 08:06:52;;;;;;;4.10;2.83;;;;;;;20.82;50.25;101461.61;1742661;80;21210;-61
2021/04/24 08:09:18;;;;;;;3.77;2.87;;;;;;;20.85;50.21;101461.00;1706363;82;21914;-61
2021/04/24 08:11:45;;;;;;;5.17;3.00;;;;;;;20.86;50.20;101461.27;1734440;80;21237;-61
2021/04/24 08:14:11;;;;;;;4.03;2.92;;;;;;;20.88;50.18;101461.20;1733974;80;21314;-61
2021/04/24 08:16:37;;;;;;;4.20;2.70;;;;;;;20.89;50.15;101451.80;1740331;81;21226;-61
2021/04/24 08:19:04;;;;;;;4.12;2.75;;;;;;;20.92;50.11;101453.12;1735780;81;21212;-61
2021/04/24 08:21:31;;;;;;;5.30;2.98;;;;;;;20.94;50.06;101446.17;1738361;81;21657;-61
2021/04/24 08:24:00;;;;;;;4.37;2.80;;;;;;;20.96;50.00;101452.20;1742480;80;22055;-62
2021/04/24 08:26:28;;;;;;;4.33;2.87;;;;;;;20.97;49.94;101453.85;1741362;80;21237;-60
2021/04/24 08:28:54;;;;;;;4.50;3.27;;;;;;;21.00;49.89;101451.63;1742340;80;21093;-62
2021/04/24 08:31:20;;;;;;;3.77;2.77;;;;;;;20.97;49.85;101452.47;1740466;80;21211;-60
2021/04/24 08:33:47;;;;;;;5.40;2.85;;;;;;;21.00;49.81;101452.44;1774502;79;21434;-60
2021/04/24 08:36:13;;;;;;;4.55;2.87;;;;;;;21.02;49.74;101461.80;1771977;79;21242;-61
2021/04/24 08:38:40;;;;;;;6.70;2.75;;;;;;;21.02;49.67;101458.48;1770323;79;21638;-60
2021/04/24 08:41:07;;;;;;;7.28;2.72;;;;;;;21.05;49.63;101462.59;1775401;78;21244;-60
2021/04/24 08:43:38;;;;;;;4.95;2.83;;;;;;;21.05;49.54;101468.92;1775044;79;21117;-61
2021/04/24 08:46:05;;;;;;;4.30;2.87;;;;;;;21.08;49.51;101468.89;1743484;80;22279;-60
2021/04/24 08:48:34;;;;;;;3.52;2.90;;;;;;;21.09;49.47;101459.48;1775943;79;21093;-62
2021/04/24 08:51:00;;;;;;;4.00;2.90;;;;;;;21.11;49.42;101464.95;1776306;79;21543;-61
2021/04/24 08:53:27;;;;;;;5.10;2.58;;;;;;;21.13;49.40;101468.25;1774121;79;21152;-60
2021/04/24 08:55:54;;;;;;;3.95;2.60;;;;;;;21.16;49.32;101464.89;1773594;79;21195;-60
2021/04/24 08:58:20;;;;;;;6.83;2.67;;;;;;;21.17;49.30;101455.47;1760667;79;21248;-61
2021/04/24 09:00:50;;;;;;;3.80;2.47;;;;;;;21.18;49.27;101462.62;1766724;79;21136;-61
2021/04/24 09:03:20;;;;;;;3.95;2.33;;;;;;;21.20;49.23;101465.09;1768088;79;22586;-61
2021/04/24 09:05:49;;;;;;;3.33;2.60;;;;;;;21.21;49.21;101466.75;1771070;79;21191;-60
2021/04/24 09:08:25;;;;;;;3.40;2.57;;;;;;;21.21;49.16;101450.14;1772435;79;21159;-60
2021/04/24 09:10:58;;;;;;;4.12;2.37;;;;;;;21.20;49.14;101447.11;1773498;79;21231;-60
2021/04/24 09:13:26;;;;;;;5.50;2.67;;;;;;;21.21;49.11;101452.91;1769307;79;21738;-61
2021/04/24 09:15:52;;;;;;;4.53;2.80;;;;;;;21.21;49.09;101453.73;1767883;79;22068;-60
2021/04/24 09:18:20;;;;;;;3.05;2.10;;;;;;;21.20;49.08;101443.78;1780111;79;21150;-61
2021/04/24 09:20:57;;;;;;;3.25;2.47;;;;;;;21.21;49.05;101434.92;1775005;79;21061;-60
2021/04/24 09:23:33;;;;;;;4.10;2.52;;;;;;;21.21;49.04;101441.28;1776908;79;21125;-60
2021/04/24 09:26:09;;;;;;;3.90;2.37;;;;;;;21.22;49.01;101433.77;1772093;79;21172;-61
2021/04/24 09:28:41;;;;;;;2.90;2.33;;;;;;;21.22;48.99;101442.89;1771639;79;21355;-61
2021/04/24 09:31:17;;;;;;;3.83;2.30;;;;;;;21.22;48.98;101432.39;1773646;79;21185;-61
2021/04/24 09:33:45;;;;;;;4.42;2.60;;;;;;;21.22;48.97;101433.77;1770811;79;21438;-60
2021/04/24 09:36:12;;;;;;;2.90;2.47;;;;;;;21.22;48.96;101433.21;1737557;80;21144;-61
2021/04/24 09:38:42;;;;;;;3.30;2.27;;;;;;;21.22;48.93;101440.69;1715523;82;21171;-61
2021/04/24 09:41:24;;;;;;;4.35;2.50;;;;;;;21.22;48.92;101444.28;1711703;82;21565;-61
2021/04/24 09:44:10;;;;;;;3.00;2.42;;;;;;;21.22;48.92;101440.13;1742723;80;21156;-62
2021/04/24 09:46:50;;;;;;;4.00;2.72;;;;;;;21.22;48.92;101444.84;1742181;80;20976;-61
2021/04/24 09:49:31;;;;;;;3.47;2.30;;;;;;;21.21;48.89;101437.13;1716980;82;21597;-61
2021/04/24 09:52:05;;;;;;;4.00;2.72;;;;;;;21.22;48.66;101429.63;1743372;80;21575;-62
2021/04/24 09:54:38;;;;;;;3.27;2.33;;;;;;;21.22;48.66;101429.63;1773581;79;22165;-62
2021/04/24 09:57:08;;;;;;;6.95;2.50;;;;;;;21.22;48.90;101427.67;1777501;79;21583;-61
2021/04/24 10:00:03;;;;;;;2.72;2.12;;;;;;;21.22;48.90;101418.55;1771280;79;21212;-62
2021/04/24 10:02:40;;;;;;;3.42;2.22;;;;;;;21.24;48.91;101417.70;1771611;79;21160;-62
2021/04/24 10:05:17;;;;;;;3.67;2.40;;;;;;;21.27;48.92;101412.92;1767867;79;21591;-61
2021/04/24 10:07:53;;;;;;;3.50;2.42;;;;;;;21.28;48.89;101403.50;1737012;80;22254;-62
2021/04/24 10:10:34;;;;;;;4.00;2.83;;;;;;;21.30;48.89;101402.64;1735778;80;21541;-62
2021/04/24 10:13:03;;;;;;;3.77;2.45;;;;;;;21.33;48.90;101400.63;1732210;81;21192;-62
2021/04/24 10:15:43;;;;;;;4.80;2.60;;;;;;;21.33;48.87;101391.77;1737443;80;21065;-61
2021/04/24 10:18:12;;;;;;;4.42;2.72;;;;;;;21.35;48.87;101385.91;1771961;79;21252;-61
2021/04/24 10:20:40;;;;;;;3.55;2.50;;;;;;;21.36;48.88;101373.71;1771357;79;21169;-62
2021/04/24 10:23:09;;;;;;;3.08;2.22;;;;;;;21.37;48.86;101369.27;1772665;79;21494;-62
2021/04/24 10:25:35;;;;;;;2.87;2.42;;;;;;;21.41;48.85;101365.30;1772030;79;21148;-61
2021/04/24 10:28:03;;;;;;;3.70;2.35;;;;;;;21.41;48.84;101367.52;1740914;80;21173;-61
2021/04/24 10:30:29;;;;;;;3.90;2.65;;;;;;;21.43;48.83;101365.01;1714139;82;21192;-61
2021/04/24 10:32:56;;;;;;;3.75;2.50;;;;;;;21.45;48.83;101358.02;1735612;80;22159;-62
2021/04/24 10:35:23;;;;;;;4.33;2.37;;;;;;;21.48;48.83;101357.95;1711373;82;21388;-62
2021/04/24 10:37:52;;;;;;;3.30;2.25;;;;;;;21.49;48.82;101344.38;1716535;82;21552;-64
2021/04/24 10:40:19;;;;;;;4.75;2.80;;;;;;;21.49;48.82;101334.13;1707398;82;21589;-62
2021/04/24 10:42:53;;;;;;;3.75;2.60;;;;;;;21.52;48.82;101332.67;1707197;80;21161;-62
2021/04/24 10:45:34;;;;;;;3.05;2.33;;;;;;;21.53;48.85;101337.91;1736968;80;21654;-62
2021/04/24 10:48:00;;;;;;;3.30;2.55;;;;;;;21.55;48.82;101334.84;1767654;79;21116;-61
2021/04/24 10:50:46;;;;;;;3.12;2.52;;;;;;;21.56;48.82;101328.97;1767979;79;21096;-62
2021/04/24 10:53:22;;;;;;;5.20;2.90;;;;;;;21.57;48.82;101322.30;1772037;79;21065;-62
2021/04/24 10:55:50;;;;;;;4.62;2.75;;;;;;;21.58;48.67;101325.90;1772432;79;21552;-62
2021/04/24 10:58:20;;;;;;;5.22;3.35;;;;;;;21.57;48.23;101332.00;1773518;79;21263;-62
2021/04/24 11:00:55;;;;;;;4.22;3.05;;;;;;;21.55;47.58;101328.73;1769923;79;21089;-62
2021/04/24 11:03:46;;;;;;;5.70;3.50;;;;;;;21.54;47.13;101324.88;1772996;79;21153;-62
2021/04/24 11:06:18;;;;;;;4.60;3.20;;;;;;;21.55;46.93;101330.69;1773831;79;21659;-62
2021/04/24 11:08:45;;;;;;;4.10;2.95;;;;;;;21.56;46.80;101330.35;1772023;79;21132;-63
2021/04/24 11:11:18;;;;;;;4.75;3.10;;;;;;;21.57;46.72;101329.79;1769019;79;22195;-62
2021/04/24 11:13:47;;;;;;;4.33;2.72;;;;;;;21.58;46.69;101325.34;1770352;79;21162;-62
2021/04/24 11:16:16;;;;;;;4.03;2.60;;;;;;;21.61;46.60;101327.47;1766491;79;21229;-62
2021/04/24 11:18:45;;;;;;;5.22;3.17;;;;;;;21.65;46.50;101332.64;1771571;79;21136;-62
2021/04/24 11:21:20;;;;;;;3.33;2.40;;;;;;;21.67;46.35;101329.57;1771830;79;21569;-63
2021/04/24 11:23:58;;;;;;;3.90;3.02;;;;;;;21.68;46.26;101323.73;1772258;79;21201;-62
2021/04/24 11:26:33;;;;;;;5.12;2.62;;;;;;;21.71;46.18;101318.94;1772443;79;21215;-62
2021/04/24 11:29:15;;;;;;;4.58;2.75;;;;;;;21.73;46.07;101322.77;1763052;79;21152;-63